Wilmot, NH (03287)

12:15 AM EST on December 04, 2016 (GMT -0500)
Shindagan | | Change Station

Elev 741 ft 43.43 °N, 71.90 °W | Updated 29 seconds ago

Overcast
Overcast
31.8 °F
Feels Like 32 °F
N
0.0
Wind Variable Wind from SE
Gusts 0.0 mph

Today
High -- | Low -- °F
--% Chance of Precip.
Yesterday
High -- | Low -- °F
Precip. -- in
Pressure 30.10 in
Visibility 10.0 miles
Clouds Mostly Cloudy 3300 ft
Overcast 4500 ft
Windchill 32 °F
Dew Point 12 °F
Humidity 44%
Rainfall 0.00 in
Snow Depth Not available.
7:04 AM 4:11 PM
Waxing Crescent, 20% visible
METAR KLEB 040453Z 33008G15KT 10SM BKN033 OVC045 01/M05 A3008 RMK AO2 SLP192 T00061050 400500006
Pressure 30.10 in
Visibility 10.0 miles
Clouds Mostly Cloudy 3300 ft
Overcast 4500 ft
Windchill 32 °F
Dew Point 12 °F
Humidity 44%
Rainfall 0.00 in
Snow Depth Not available.
7:04 AM 4:11 PM
Waxing Crescent, 20% visible
METAR KLEB 040453Z 33008G15KT 10SM BKN033 OVC045 01/M05 A3008 RMK AO2 SLP192 T00061050 400500006

10-Day Weather Forecast

Almanac

Astronomy

Dec. 04, 2016 Rise Set
Actual Time
Civil Twilight
Nautical Twilight
Astronomical Twilight
Moon
Length of Visible Light
Length of Day
Tomorrow will be .
, % of the Moon is Illuminated

Today's Extremes

State Highs State Lows

Community

WunderPhotos

Upload Photos

1,955,585 photos uploaded!

WunderBlog® & News

Nearby

Air Quality

  Air Quality AQ Index Pollutant
Not available.

Snow Depth

Station Depth Elevation

Earthquake Activity

City Distance Mag. Time & Date
Minimum magnitude displayed is 2.5.

Coastal Water Temperatures

Place Temperature

Stations

Nearby Weather Stations

Station Location Temp. Windchill Dew Point Humidity Wind Precip. Elev Updated Type
                   

Watches & Warnings

There are currently no watches in effect.